createdAt,value
2019-02-08T00:02:27.610Z,2.24
2019-02-08T00:05:34.708Z,2.27
2019-02-08T00:08:43.342Z,2.32
2019-02-08T00:11:51.602Z,2.22
2019-02-08T00:14:58.550Z,2.29
2019-02-08T00:18:05.593Z,2.29
2019-02-08T00:21:12.620Z,2.24
2019-02-08T00:24:19.767Z,2.20
2019-02-08T00:27:27.106Z,2.29
2019-02-08T00:30:34.158Z,2.27
2019-02-08T00:33:41.558Z,2.34
2019-02-08T00:36:48.651Z,2.39
2019-02-08T00:39:55.757Z,2.33
2019-02-08T00:43:02.816Z,2.29
2019-02-08T00:46:10.236Z,2.34
2019-02-08T00:49:19.620Z,2.34
2019-02-08T00:52:26.670Z,2.43
2019-02-08T00:55:33.662Z,2.25
2019-02-08T00:58:43.524Z,2.23
2019-02-08T01:01:50.458Z,2.19
2019-02-08T01:04:57.492Z,2.24
2019-02-08T01:08:04.580Z,2.32
2019-02-08T01:11:11.587Z,2.30
2019-02-08T01:14:21.459Z,2.35
2019-02-08T01:17:28.372Z,2.43
2019-02-08T01:20:36.504Z,2.52
2019-02-08T01:23:43.475Z,2.43
2019-02-08T01:26:50.413Z,2.46
2019-02-08T01:29:57.455Z,2.40
2019-02-08T01:33:05.068Z,2.50
2019-02-08T01:36:13.250Z,2.44
2019-02-08T01:39:20.190Z,2.47
2019-02-08T01:42:30.589Z,2.50
2019-02-08T01:45:37.537Z,2.49
2019-02-08T01:48:45.608Z,2.78
2019-02-08T01:51:52.663Z,2.86
2019-02-08T01:54:59.591Z,2.89
2019-02-08T01:58:07.546Z,2.75
2019-02-08T02:01:15.068Z,2.76
2019-02-08T02:04:22.307Z,2.79
2019-02-08T02:07:29.361Z,2.71
2019-02-08T02:10:42.310Z,2.69
2019-02-08T02:13:49.426Z,2.68
2019-02-08T02:16:56.614Z,2.63
2019-02-08T02:20:03.841Z,2.62
2019-02-08T02:23:14.627Z,2.61
2019-02-08T02:26:21.796Z,2.63
2019-02-08T02:29:28.854Z,2.69
2019-02-08T02:32:36.927Z,2.62
2019-02-08T02:35:46.152Z,2.71
2019-02-08T02:38:54.585Z,2.68
2019-02-08T02:42:01.705Z,2.72
2019-02-08T02:45:18.221Z,2.77
2019-02-08T02:48:25.402Z,2.74
2019-02-08T02:51:32.469Z,2.78
2019-02-08T02:54:42.366Z,2.76
2019-02-08T02:57:49.601Z,2.67
2019-02-08T03:00:56.553Z,2.79
2019-02-08T03:04:03.567Z,2.81
2019-02-08T03:07:10.516Z,3.01
2019-02-08T03:10:18.986Z,2.79
2019-02-08T03:13:27.044Z,2.90
2019-02-08T03:16:34.060Z,2.84
2019-02-08T03:19:41.038Z,2.76
2019-02-08T03:22:48.028Z,2.63
2019-02-08T03:25:55.195Z,2.62
2019-02-08T03:29:02.126Z,2.56
2019-02-08T03:32:09.098Z,2.62
2019-02-08T03:35:21.547Z,2.57
2019-02-08T03:38:28.495Z,2.50
2019-02-08T03:41:36.784Z,2.43
2019-02-08T03:44:43.750Z,2.29
2019-02-08T03:47:50.906Z,2.15
2019-02-08T03:50:57.801Z,2.03
2019-02-08T03:54:04.995Z,2.13
2019-02-08T03:57:12.121Z,2.23
2019-02-08T04:00:38.987Z,2.28
2019-02-08T04:03:46.086Z,2.28
2019-02-08T04:06:53.145Z,2.10
2019-02-08T04:10:00.219Z,2.02
2019-02-08T04:13:07.327Z,1.99
2019-02-08T04:16:14.761Z,1.92
2019-02-08T04:19:21.718Z,1.85
2019-02-08T04:22:28.647Z,1.85
2019-02-08T04:25:36.326Z,1.95
2019-02-08T04:28:43.468Z,1.96
2019-02-08T04:31:51.936Z,1.97
2019-02-08T04:34:58.844Z,2.00
2019-02-08T04:38:06.106Z,2.13
2019-02-08T04:41:13.113Z,2.10
2019-02-08T04:44:21.831Z,2.27
2019-02-08T04:47:29.854Z,2.18
2019-02-08T04:50:36.766Z,2.13
2019-02-08T04:53:43.722Z,2.20
2019-02-08T04:56:50.753Z,2.18
2019-02-08T04:59:57.838Z,2.11
2019-02-08T05:03:05.221Z,2.22
2019-02-08T05:06:12.219Z,2.18
2019-02-08T05:09:19.520Z,2.28
2019-02-08T05:12:26.430Z,2.41
2019-02-08T05:15:33.477Z,2.35
2019-02-08T05:18:40.406Z,2.43
2019-02-08T05:21:47.423Z,2.32
2019-02-08T05:24:54.394Z,2.28
2019-02-08T05:28:01.437Z,2.42
2019-02-08T05:31:08.469Z,2.40
2019-02-08T05:34:16.679Z,2.50
2019-02-08T05:37:24.008Z,2.44
2019-02-08T05:40:31.766Z,2.38
2019-02-08T05:43:39.137Z,2.39
2019-02-08T05:46:46.476Z,2.56
2019-02-08T05:49:53.347Z,2.42
2019-02-08T05:53:00.470Z,2.50
2019-02-08T05:56:07.410Z,2.50
2019-02-08T05:59:17.931Z,2.68
2019-02-08T06:02:25.231Z,2.71
2019-02-08T06:05:32.319Z,2.62
2019-02-08T06:08:39.231Z,2.85
2019-02-08T06:11:46.237Z,2.76
2019-02-08T06:14:53.199Z,2.70
2019-02-08T06:18:00.118Z,2.74
2019-02-08T06:21:07.114Z,2.69
2019-02-08T06:24:15.903Z,2.82
2019-02-08T06:27:22.792Z,2.80
2019-02-08T06:30:29.833Z,2.87
2019-02-08T06:33:36.765Z,2.66
2019-02-08T06:36:43.811Z,2.70
2019-02-08T06:39:50.717Z,2.56
2019-02-08T06:42:58.142Z,2.57
2019-02-08T06:46:05.154Z,2.72
2019-02-08T06:49:12.867Z,2.65
2019-02-08T06:52:22.514Z,2.66
2019-02-08T06:55:29.759Z,2.64
2019-02-08T06:58:58.427Z,2.59
2019-02-08T07:02:30.456Z,2.68
2019-02-08T07:05:56.553Z,2.66
2019-02-08T07:09:17.334Z,2.72
2019-02-08T07:12:41.847Z,2.69
2019-02-08T07:16:10.723Z,2.68
2019-02-08T07:19:42.439Z,2.80
2019-02-08T07:23:26.706Z,2.89
2019-02-08T07:26:51.246Z,2.98
2019-02-08T07:30:35.540Z,2.97
2019-02-08T07:33:48.499Z,2.94
2019-02-08T07:37:15.538Z,3.02
2019-02-08T07:40:45.269Z,3.08
2019-02-08T07:44:12.674Z,3.14
2019-02-08T07:47:27.834Z,3.17
2019-02-08T07:51:00.330Z,3.23
2019-02-08T07:54:25.242Z,3.27
2019-02-08T07:57:49.607Z,3.33
2019-02-08T08:01:29.097Z,3.33
2019-02-08T08:05:04.577Z,3.38
2019-02-08T08:08:25.607Z,3.41
2019-02-08T08:11:41.228Z,3.41
2019-02-08T08:15:00.192Z,3.46
2019-02-08T08:18:18.239Z,3.60
2019-02-08T08:21:47.186Z,3.47
2019-02-08T08:25:14.577Z,3.55
2019-02-08T08:28:43.425Z,3.61
2019-02-08T08:32:02.146Z,3.53
2019-02-08T08:35:52.680Z,3.63
2019-02-08T08:39:48.866Z,3.62
2019-02-08T08:43:46.150Z,3.61
2019-02-08T08:47:51.951Z,3.80
2019-02-08T08:51:37.836Z,3.82
2019-02-08T08:56:16.145Z,3.97
2019-02-08T08:59:52.356Z,4.04
2019-02-08T09:04:02.847Z,4.02
2019-02-08T09:08:00.860Z,4.15
2019-02-08T09:11:50.834Z,4.33
2019-02-08T09:15:52.660Z,4.38
2019-02-08T09:19:46.496Z,4.44
2019-02-08T09:24:10.821Z,4.48
2019-02-08T09:28:18.094Z,4.65
2019-02-08T09:32:37.239Z,4.74
2019-02-08T09:36:59.343Z,4.72
2019-02-08T09:40:55.182Z,4.77
2019-02-08T09:44:51.899Z,4.97
2019-02-08T09:48:41.466Z,4.94
2019-02-08T09:52:45.732Z,4.91
2019-02-08T09:56:53.520Z,4.93
2019-02-08T10:00:40.965Z,4.96
2019-02-08T10:04:42.313Z,4.88
2019-02-08T10:09:16.227Z,4.85
2019-02-08T10:13:16.212Z,4.87
2019-02-08T10:17:11.484Z,4.84
2019-02-08T10:21:19.581Z,4.80
2019-02-08T10:25:39.557Z,4.86
2019-02-08T10:29:51.049Z,4.90
2019-02-08T10:33:52.684Z,4.72
2019-02-08T10:38:03.573Z,4.84
2019-02-08T10:42:30.062Z,4.80
2019-02-08T10:46:39.457Z,4.78
2019-02-08T10:51:02.242Z,4.80
2019-02-08T10:55:10.971Z,4.96
2019-02-08T10:59:30.751Z,5.06
2019-02-08T11:03:50.136Z,5.12
2019-02-08T11:08:03.462Z,5.06
2019-02-08T11:12:26.854Z,5.04
2019-02-08T11:16:32.176Z,5.30
2019-02-08T11:19:38.333Z,5.38
2019-02-08T11:22:45.331Z,5.31
2019-02-08T11:25:52.244Z,5.18
2019-02-08T11:28:59.285Z,5.18
2019-02-08T11:32:07.647Z,5.21
2019-02-08T11:35:17.335Z,5.22
2019-02-08T11:38:24.407Z,5.23
2019-02-08T11:41:31.524Z,5.22
2019-02-08T11:44:38.468Z,5.04
2019-02-08T11:47:45.511Z,4.86
2019-02-08T11:50:52.424Z,4.78
2019-02-08T11:53:59.465Z,4.83
2019-02-08T11:57:06.901Z,4.78
2019-02-08T12:00:26.388Z,4.91
2019-02-08T12:03:33.413Z,4.98
2019-02-08T12:06:40.387Z,5.34
2019-02-08T12:09:47.374Z,5.40
2019-02-08T12:12:54.380Z,5.41
2019-02-08T12:16:02.546Z,5.41
2019-02-08T12:19:11.228Z,5.28
2019-02-08T12:22:19.705Z,5.41
2019-02-08T12:25:26.833Z,5.22
2019-02-08T12:28:34.033Z,5.38
2019-02-08T12:31:40.990Z,5.35
2019-02-08T12:34:47.938Z,5.34
2019-02-08T12:38:01.247Z,5.58
2019-02-08T12:41:09.759Z,5.55
2019-02-08T12:44:19.973Z,5.58
2019-02-08T12:47:27.037Z,5.65
2019-02-08T12:50:34.065Z,5.73
2019-02-08T12:53:40.942Z,5.88
2019-02-08T12:56:47.942Z,5.81
2019-02-08T12:59:55.193Z,5.75
2019-02-08T13:03:02.129Z,5.70
2019-02-08T13:06:12.674Z,5.75
2019-02-08T13:09:23.208Z,5.86
2019-02-08T13:12:30.326Z,5.83
2019-02-08T13:15:37.368Z,5.77
2019-02-08T13:18:44.287Z,5.72
2019-02-08T13:21:56.297Z,5.66
2019-02-08T13:25:04.250Z,5.54
2019-02-08T13:28:11.443Z,5.72
2019-02-08T13:31:18.471Z,5.72
2019-02-08T13:34:25.480Z,5.82
2019-02-08T13:37:33.081Z,5.81
2019-02-08T13:40:54.692Z,5.88
2019-02-08T13:44:02.039Z,6.24
2019-02-08T13:47:08.984Z,5.99
2019-02-08T13:50:22.413Z,6.01
2019-02-08T13:53:29.337Z,6.17
2019-02-08T13:56:36.229Z,6.21
2019-02-08T13:59:43.296Z,6.18
2019-02-08T14:02:51.630Z,6.30
2019-02-08T14:05:58.709Z,6.21
2019-02-08T14:09:09.377Z,6.36
2019-02-08T14:12:19.340Z,6.50
2019-02-08T14:15:27.092Z,6.08
2019-02-08T14:18:37.127Z,6.35
2019-02-08T14:21:44.042Z,6.15
2019-02-08T14:24:51.016Z,6.08
2019-02-08T14:27:58.093Z,6.17
2019-02-08T14:31:11.470Z,6.29
2019-02-08T14:34:18.709Z,6.26
2019-02-08T14:37:25.659Z,6.43
2019-02-08T14:40:34.705Z,6.81
2019-02-08T14:43:42.540Z,6.54
2019-02-08T14:46:49.640Z,6.28
2019-02-08T14:49:56.662Z,6.33
2019-02-08T14:53:03.582Z,6.08
2019-02-08T14:56:10.534Z,6.08
2019-02-08T14:59:17.711Z,5.91
2019-02-08T15:02:24.681Z,5.69
2019-02-08T15:05:34.401Z,5.65
2019-02-08T15:08:41.427Z,5.33
2019-02-08T15:11:48.365Z,5.65
2019-02-08T15:14:55.327Z,5.44
2019-02-08T15:18:02.284Z,5.31
2019-02-08T15:21:09.283Z,5.31
2019-02-08T15:24:22.175Z,5.28
2019-02-08T15:27:29.195Z,4.99
2019-02-08T15:30:36.454Z,5.12
2019-02-08T15:33:43.451Z,5.10
2019-02-08T15:36:51.618Z,4.90
2019-02-08T15:39:59.609Z,4.93
2019-02-08T15:43:07.205Z,4.86
2019-02-08T15:46:14.924Z,5.02
2019-02-08T15:49:24.855Z,4.94
2019-02-08T15:52:31.835Z,4.75
2019-02-08T15:55:40.717Z,4.70
2019-02-08T15:58:47.739Z,4.81
2019-02-08T16:01:55.781Z,4.54
2019-02-08T16:05:05.612Z,4.58
2019-02-08T16:08:15.737Z,4.70
2019-02-08T16:11:22.919Z,4.70
2019-02-08T16:14:29.859Z,4.37
2019-02-08T16:17:36.924Z,4.41
2019-02-08T16:20:44.162Z,4.23
2019-02-08T16:23:51.169Z,4.19
2019-02-08T16:26:58.240Z,4.18
2019-02-08T16:30:10.376Z,4.28
2019-02-08T16:33:18.157Z,4.17
2019-02-08T16:36:25.089Z,4.06
2019-02-08T16:39:32.157Z,4.09
2019-02-08T16:42:39.119Z,3.96
2019-02-08T16:45:46.343Z,3.87
2019-02-08T16:48:53.305Z,3.89
2019-02-08T16:52:00.208Z,3.73
2019-02-08T16:55:09.954Z,3.96
2019-02-08T16:58:19.803Z,3.83
2019-02-08T17:01:26.796Z,3.94
2019-02-08T17:04:34.595Z,3.81
2019-02-08T17:07:41.702Z,3.76
2019-02-08T17:10:48.951Z,3.79
2019-02-08T17:13:55.961Z,3.79
2019-02-08T17:17:04.560Z,3.57
2019-02-08T17:20:35.468Z,3.62
2019-02-08T17:23:42.481Z,3.66
2019-02-08T17:26:49.493Z,3.59
2019-02-08T17:30:02.494Z,3.60
2019-02-08T17:33:14.996Z,3.72
2019-02-08T17:36:23.117Z,3.58
2019-02-08T17:39:30.130Z,3.74
2019-02-08T17:42:37.550Z,3.74
2019-02-08T17:45:44.490Z,3.71
2019-02-08T17:48:51.488Z,3.68
2019-02-08T17:51:58.390Z,3.44
2019-02-08T17:55:07.152Z,3.55
2019-02-08T17:58:14.250Z,3.59
2019-02-08T18:01:26.235Z,3.64
2019-02-08T18:04:33.165Z,3.56
2019-02-08T18:07:40.044Z,3.38
2019-02-08T18:10:46.958Z,3.39
2019-02-08T18:13:53.854Z,3.34
2019-02-08T18:17:00.757Z,3.40
2019-02-08T18:20:14.219Z,3.30
2019-02-08T18:23:21.218Z,3.40
2019-02-08T18:26:28.110Z,3.50
2019-02-08T18:29:35.076Z,3.34
2019-02-08T18:32:42.118Z,3.30
2019-02-08T18:35:49.096Z,3.30
2019-02-08T18:38:58.855Z,3.36
2019-02-08T18:42:05.770Z,3.36
2019-02-08T18:45:17.750Z,3.43
2019-02-08T18:48:24.805Z,3.46
2019-02-08T18:51:31.742Z,3.34
2019-02-08T18:54:38.832Z,3.39
2019-02-08T18:57:45.809Z,3.40
2019-02-08T19:00:53.327Z,3.30
2019-02-08T19:04:01.408Z,3.30
2019-02-08T19:07:08.405Z,3.30
2019-02-08T19:10:18.731Z,3.40
2019-02-08T19:13:26.524Z,3.49
2019-02-08T19:16:33.451Z,3.53
2019-02-08T19:19:40.512Z,3.42
2019-02-08T19:22:47.562Z,3.29
2019-02-08T19:25:54.537Z,3.47
2019-02-08T19:29:01.413Z,3.53
2019-02-08T19:32:11.133Z,3.53
2019-02-08T19:35:18.743Z,3.49
2019-02-08T19:38:25.982Z,3.56
2019-02-08T19:41:32.835Z,3.59
2019-02-08T19:44:39.827Z,3.57
2019-02-08T19:47:46.797Z,3.63
2019-02-08T19:50:53.797Z,3.52
2019-02-08T19:54:00.776Z,3.42
2019-02-08T19:57:08.174Z,3.51
2019-02-08T20:00:18.534Z,3.68
2019-02-08T20:03:26.463Z,3.65
2019-02-08T20:06:33.412Z,3.61
2019-02-08T20:09:40.334Z,3.64
2019-02-08T20:12:47.277Z,3.60
2019-02-08T20:15:55.209Z,3.55
2019-02-08T20:19:02.237Z,3.63
2019-02-08T20:22:09.322Z,3.64
2019-02-08T20:25:23.730Z,3.54
2019-02-08T20:28:30.783Z,3.47
2019-02-08T20:31:37.724Z,3.37
2019-02-08T20:34:44.707Z,3.38
2019-02-08T20:37:51.768Z,3.57
2019-02-08T20:40:58.796Z,3.37
2019-02-08T20:44:06.040Z,3.37
2019-02-08T20:47:17.776Z,3.44
2019-02-08T20:50:25.577Z,3.77
2019-02-08T20:53:32.673Z,3.88
2019-02-08T20:56:39.616Z,3.73
2019-02-08T20:59:46.722Z,4.08
2019-02-08T21:02:54.627Z,3.96
2019-02-08T21:06:01.676Z,4.26
2019-02-08T21:09:14.525Z,4.19
2019-02-08T21:12:21.634Z,4.10
2019-02-08T21:15:28.854Z,4.26
2019-02-08T21:18:36.278Z,4.26
2019-02-08T21:21:43.299Z,4.24
2019-02-08T21:24:50.357Z,4.39
2019-02-08T21:27:57.280Z,4.32
2019-02-08T21:31:04.191Z,4.23
2019-02-08T21:34:11.256Z,4.21
2019-02-08T21:37:18.261Z,4.28
2019-02-08T21:40:27.039Z,4.41
2019-02-08T21:43:34.240Z,4.47
2019-02-08T21:46:41.302Z,4.44
2019-02-08T21:49:50.746Z,4.44
2019-02-08T21:52:57.740Z,4.48
2019-02-08T21:56:07.339Z,4.46
2019-02-08T21:59:15.911Z,4.53
2019-02-08T22:02:22.978Z,4.47
2019-02-08T22:05:55.467Z,4.48
2019-02-08T22:09:02.478Z,4.46
2019-02-08T22:12:09.910Z,4.81
2019-02-08T22:15:20.897Z,4.68
2019-02-08T22:18:27.914Z,4.61
2019-02-08T22:21:35.220Z,4.81
2019-02-08T22:24:42.112Z,4.74
2019-02-08T22:27:49.088Z,4.77
2019-02-08T22:30:56.056Z,4.56
2019-02-08T22:34:03.039Z,4.58
2019-02-08T22:37:10.022Z,4.45
2019-02-08T22:40:19.721Z,4.48
2019-02-08T22:43:26.691Z,4.63
2019-02-08T22:46:33.640Z,4.75
2019-02-08T22:49:40.669Z,4.49
2019-02-08T22:52:48.815Z,4.72
2019-02-08T22:55:55.706Z,4.46
2019-02-08T22:59:02.811Z,4.61
2019-02-08T23:02:10.613Z,4.52
2019-02-08T23:05:19.335Z,4.58
2019-02-08T23:08:26.333Z,4.62
2019-02-08T23:11:34.513Z,4.76
2019-02-08T23:14:41.333Z,4.70
2019-02-08T23:17:48.332Z,4.73
2019-02-08T23:20:55.292Z,4.69
2019-02-08T23:24:05.784Z,4.77
2019-02-08T23:27:13.436Z,4.73
2019-02-08T23:30:20.738Z,4.71
2019-02-08T23:33:27.748Z,4.65
2019-02-08T23:36:35.178Z,4.67
2019-02-08T23:39:42.025Z,4.72
2019-02-08T23:42:49.021Z,4.64
2019-02-08T23:45:55.983Z,4.68
2019-02-08T23:49:02.977Z,4.74
2019-02-08T23:52:13.039Z,4.76
2019-02-08T23:55:20.142Z,4.63
2019-02-08T23:58:28.208Z,4.75
